sensor_id;sensor_type;location;lat;lon;timestamp;temperature;humidity
8824;DHT22;4448;50.904;4.694;2024-01-10T00:01:34;-0.30;99.90
8824;DHT22;4448;50.904;4.694;2024-01-10T00:03:59;-0.30;99.90
8824;DHT22;4448;50.904;4.694;2024-01-10T00:06:25;-0.30;99.90
8824;DHT22;4448;50.904;4.694;2024-01-10T00:08:51;-0.30;99.90
8824;DHT22;4448;50.904;4.694;2024-01-10T00:11:17;-0.30;99.90
8824;DHT22;4448;50.904;4.694;2024-01-10T00:13:42;-0.30;99.90
8824;DHT22;4448;50.904;4.694;2024-01-10T00:16:08;-0.30;99.90
8824;DHT22;4448;50.904;4.694;2024-01-10T00:18:34;-0.30;99.90
8824;DHT22;4448;50.904;4.694;2024-01-10T00:21:00;-0.30;99.90
8824;DHT22;4448;50.904;4.694;2024-01-10T00:23:26;-0.30;99.90
8824;DHT22;4448;50.904;4.694;2024-01-10T00:25:51;-0.30;99.90
8824;DHT22;4448;50.904;4.694;2024-01-10T00:28:17;-0.30;99.90
8824;DHT22;4448;50.904;4.694;2024-01-10T00:30:44;-0.30;99.90
8824;DHT22;4448;50.904;4.694;2024-01-10T00:33:10;-0.40;99.90
8824;DHT22;4448;50.904;4.694;2024-01-10T00:35:36;-0.40;99.90
8824;DHT22;4448;50.904;4.694;2024-01-10T00:38:03;-0.40;99.90
8824;DHT22;4448;50.904;4.694;2024-01-10T00:40:28;-0.40;99.90
8824;DHT22;4448;50.904;4.694;2024-01-10T00:42:54;-0.40;99.90
8824;DHT22;4448;50.904;4.694;2024-01-10T00:45:20;-0.40;99.90
8824;DHT22;4448;50.904;4.694;2024-01-10T00:47:48;-0.40;99.90
8824;DHT22;4448;50.904;4.694;2024-01-10T00:50:14;-0.40;99.90
8824;DHT22;4448;50.904;4.694;2024-01-10T00:52:39;-0.40;99.90
8824;DHT22;4448;50.904;4.694;2024-01-10T00:55:05;-0.40;99.90
8824;DHT22;4448;50.904;4.694;2024-01-10T00:57:31;-0.40;99.90
8824;DHT22;4448;50.904;4.694;2024-01-10T00:59:56;-0.40;99.90
8824;DHT22;4448;50.904;4.694;2024-01-10T01:02:22;-0.40;99.90
8824;DHT22;4448;50.904;4.694;2024-01-10T01:04:48;-0.40;99.90
8824;DHT22;4448;50.904;4.694;2024-01-10T01:07:13;-0.50;99.90
8824;DHT22;4448;50.904;4.694;2024-01-10T01:09:39;-0.50;99.90
8824;DHT22;4448;50.904;4.694;2024-01-10T01:12:05;-0.50;99.90
8824;DHT22;4448;50.904;4.694;2024-01-10T01:14:31;-0.50;99.90
8824;DHT22;4448;50.904;4.694;2024-01-10T01:16:56;-0.50;99.90
8824;DHT22;4448;50.904;4.694;2024-01-10T01:19:22;-0.50;99.90
8824;DHT22;4448;50.904;4.694;2024-01-10T01:21:48;-0.50;99.90
8824;DHT22;4448;50.904;4.694;2024-01-10T01:24:13;-0.50;99.90
8824;DHT22;4448;50.904;4.694;2024-01-10T01:26:39;-0.60;99.90
8824;DHT22;4448;50.904;4.694;2024-01-10T01:29:05;-0.50;99.90
8824;DHT22;4448;50.904;4.694;2024-01-10T01:31:31;-0.50;99.90
8824;DHT22;4448;50.904;4.694;2024-01-10T01:33:57;-0.60;99.90
8824;DHT22;4448;50.904;4.694;2024-01-10T01:36:23;-0.60;99.90
8824;DHT22;4448;50.904;4.694;2024-01-10T01:38:49;-0.60;99.90
8824;DHT22;4448;50.904;4.694;2024-01-10T01:41:14;-0.60;99.90
8824;DHT22;4448;50.904;4.694;2024-01-10T01:43:40;-0.60;99.90
8824;DHT22;4448;50.904;4.694;2024-01-10T01:46:07;-0.70;99.90
8824;DHT22;4448;50.904;4.694;2024-01-10T01:48:33;-0.60;99.90
8824;DHT22;4448;50.904;4.694;2024-01-10T01:51:05;-0.70;99.90
8824;DHT22;4448;50.904;4.694;2024-01-10T01:53:33;-0.70;99.90
8824;DHT22;4448;50.904;4.694;2024-01-10T01:56:01;-0.70;99.90
8824;DHT22;4448;50.904;4.694;2024-01-10T01:58:29;-0.70;99.90
8824;DHT22;4448;50.904;4.694;2024-01-10T02:00:55;-0.70;99.90
8824;DHT22;4448;50.904;4.694;2024-01-10T02:03:21;-0.70;99.90
8824;DHT22;4448;50.904;4.694;2024-01-10T02:05:47;-0.70;99.90
8824;DHT22;4448;50.904;4.694;2024-01-10T02:08:13;-0.70;99.90
8824;DHT22;4448;50.904;4.694;2024-01-10T02:10:39;-0.70;99.90
8824;DHT22;4448;50.904;4.694;2024-01-10T02:13:05;-0.70;99.90
8824;DHT22;4448;50.904;4.694;2024-01-10T02:15:31;-0.70;99.90
8824;DHT22;4448;50.904;4.694;2024-01-10T02:17:57;-0.70;99.90
8824;DHT22;4448;50.904;4.694;2024-01-10T02:20:22;-0.70;99.90
8824;DHT22;4448;50.904;4.694;2024-01-10T02:22:48;-0.80;99.90
8824;DHT22;4448;50.904;4.694;2024-01-10T02:25:16;-0.80;99.90
8824;DHT22;4448;50.904;4.694;2024-01-10T02:27:41;-0.80;99.90
8824;DHT22;4448;50.904;4.694;2024-01-10T02:30:08;-0.80;99.90
8824;DHT22;4448;50.904;4.694;2024-01-10T02:32:34;-0.80;99.90
8824;DHT22;4448;50.904;4.694;2024-01-10T02:35:00;-0.80;99.90
8824;DHT22;4448;50.904;4.694;2024-01-10T02:37:26;-0.80;99.90
8824;DHT22;4448;50.904;4.694;2024-01-10T02:39:52;-0.80;99.90
8824;DHT22;4448;50.904;4.694;2024-01-10T02:42:17;-0.80;99.90
8824;DHT22;4448;50.904;4.694;2024-01-10T02:44:43;-0.90;99.90
8824;DHT22;4448;50.904;4.694;2024-01-10T02:47:11;-0.80;99.90
8824;DHT22;4448;50.904;4.694;2024-01-10T02:49:37;-0.90;99.90
8824;DHT22;4448;50.904;4.694;2024-01-10T02:52:03;-0.90;99.90
8824;DHT22;4448;50.904;4.694;2024-01-10T02:54:29;-0.90;99.90
8824;DHT22;4448;50.904;4.694;2024-01-10T02:56:54;-0.90;99.90
8824;DHT22;4448;50.904;4.694;2024-01-10T02:59:20;-0.90;99.90
8824;DHT22;4448;50.904;4.694;2024-01-10T03:01:46;-0.90;99.90
8824;DHT22;4448;50.904;4.694;2024-01-10T03:04:12;-0.90;99.90
8824;DHT22;4448;50.904;4.694;2024-01-10T03:06:37;-0.90;99.90
8824;DHT22;4448;50.904;4.694;2024-01-10T03:09:03;-1.00;99.90
8824;DHT22;4448;50.904;4.694;2024-01-10T03:11:29;-1.00;99.90
8824;DHT22;4448;50.904;4.694;2024-01-10T03:14:04;-1.00;99.90
8824;DHT22;4448;50.904;4.694;2024-01-10T03:16:32;-1.00;99.90
8824;DHT22;4448;50.904;4.694;2024-01-10T03:18:58;-1.00;99.90
8824;DHT22;4448;50.904;4.694;2024-01-10T03:21:24;-1.00;99.90
8824;DHT22;4448;50.904;4.694;2024-01-10T03:23:56;-1.00;99.90
8824;DHT22;4448;50.904;4.694;2024-01-10T03:26:27;-1.00;99.90
8824;DHT22;4448;50.904;4.694;2024-01-10T03:28:53;-1.10;99.90
8824;DHT22;4448;50.904;4.694;2024-01-10T03:31:19;-1.10;99.90
8824;DHT22;4448;50.904;4.694;2024-01-10T03:33:45;-1.10;99.90
8824;DHT22;4448;50.904;4.694;2024-01-10T03:36:16;-1.10;99.90
8824;DHT22;4448;50.904;4.694;2024-01-10T03:38:43;-1.10;99.90
8824;DHT22;4448;50.904;4.694;2024-01-10T03:41:16;-1.10;99.90
8824;DHT22;4448;50.904;4.694;2024-01-10T03:43:42;-1.10;99.90
8824;DHT22;4448;50.904;4.694;2024-01-10T03:46:08;-1.10;99.90
8824;DHT22;4448;50.904;4.694;2024-01-10T03:48:34;-1.10;99.90
8824;DHT22;4448;50.904;4.694;2024-01-10T03:51:00;-1.20;99.90
8824;DHT22;4448;50.904;4.694;2024-01-10T03:53:26;-1.10;99.90
8824;DHT22;4448;50.904;4.694;2024-01-10T03:55:52;-1.20;99.90
8824;DHT22;4448;50.904;4.694;2024-01-10T03:58:17;-1.20;99.90
8824;DHT22;4448;50.904;4.694;2024-01-10T04:00:43;-1.20;99.90
8824;DHT22;4448;50.904;4.694;2024-01-10T04:03:09;-1.20;99.90
8824;DHT22;4448;50.904;4.694;2024-01-10T04:05:34;-1.20;99.90
8824;DHT22;4448;50.904;4.694;2024-01-10T04:08:00;-1.20;99.90
8824;DHT22;4448;50.904;4.694;2024-01-10T04:10:26;-1.20;99.90
8824;DHT22;4448;50.904;4.694;2024-01-10T04:12:51;-1.30;99.90
8824;DHT22;4448;50.904;4.694;2024-01-10T04:15:17;-1.30;99.90
8824;DHT22;4448;50.904;4.694;2024-01-10T04:17:43;-1.30;99.90
8824;DHT22;4448;50.904;4.694;2024-01-10T04:20:10;-1.30;99.90
8824;DHT22;4448;50.904;4.694;2024-01-10T04:22:36;-1.30;99.90
8824;DHT22;4448;50.904;4.694;2024-01-10T04:25:04;-1.30;99.90
8824;DHT22;4448;50.904;4.694;2024-01-10T04:27:31;-1.20;99.90
8824;DHT22;4448;50.904;4.694;2024-01-10T04:29:56;-1.30;99.90
8824;DHT22;4448;50.904;4.694;2024-01-10T04:32:22;-1.20;99.90
8824;DHT22;4448;50.904;4.694;2024-01-10T04:34:48;-1.20;99.90
8824;DHT22;4448;50.904;4.694;2024-01-10T04:37:13;-1.20;99.90
8824;DHT22;4448;50.904;4.694;2024-01-10T04:39:40;-1.20;99.90
8824;DHT22;4448;50.904;4.694;2024-01-10T04:42:08;-1.20;99.90
8824;DHT22;4448;50.904;4.694;2024-01-10T04:44:34;-1.20;99.90
8824;DHT22;4448;50.904;4.694;2024-01-10T04:46:59;-1.20;99.90
8824;DHT22;4448;50.904;4.694;2024-01-10T04:49:25;-1.20;99.90
8824;DHT22;4448;50.904;4.694;2024-01-10T04:51:51;-1.20;99.90
8824;DHT22;4448;50.904;4.694;2024-01-10T04:54:17;-1.20;99.90
8824;DHT22;4448;50.904;4.694;2024-01-10T04:56:42;-1.20;99.90
8824;DHT22;4448;50.904;4.694;2024-01-10T04:59:08;-1.20;99.90
8824;DHT22;4448;50.904;4.694;2024-01-10T05:01:34;-1.20;99.90
8824;DHT22;4448;50.904;4.694;2024-01-10T05:04:00;-1.20;99.90
8824;DHT22;4448;50.904;4.694;2024-01-10T05:06:26;-1.20;99.90
8824;DHT22;4448;50.904;4.694;2024-01-10T05:08:52;-1.20;99.90
8824;DHT22;4448;50.904;4.694;2024-01-10T05:11:18;-1.20;99.90
8824;DHT22;4448;50.904;4.694;2024-01-10T05:13:44;-1.20;99.90
8824;DHT22;4448;50.904;4.694;2024-01-10T05:16:10;-1.20;99.90
8824;DHT22;4448;50.904;4.694;2024-01-10T05:18:35;-1.20;99.90
8824;DHT22;4448;50.904;4.694;2024-01-10T05:21:02;-1.20;99.90
8824;DHT22;4448;50.904;4.694;2024-01-10T05:23:29;-1.20;99.90
8824;DHT22;4448;50.904;4.694;2024-01-10T05:25:55;-1.30;99.90
8824;DHT22;4448;50.904;4.694;2024-01-10T05:28:21;-1.30;99.90
8824;DHT22;4448;50.904;4.694;2024-01-10T05:30:46;-1.30;99.90
8824;DHT22;4448;50.904;4.694;2024-01-10T05:33:12;-1.30;99.90
8824;DHT22;4448;50.904;4.694;2024-01-10T05:35:38;-1.30;99.90
8824;DHT22;4448;50.904;4.694;2024-01-10T05:38:04;-1.30;99.90
8824;DHT22;4448;50.904;4.694;2024-01-10T05:40:30;-1.40;99.90
8824;DHT22;4448;50.904;4.694;2024-01-10T05:42:57;-1.40;99.90
8824;DHT22;4448;50.904;4.694;2024-01-10T05:45:25;-1.40;99.90
8824;DHT22;4448;50.904;4.694;2024-01-10T05:47:51;-1.40;99.90
8824;DHT22;4448;50.904;4.694;2024-01-10T05:50:16;-1.30;99.90
8824;DHT22;4448;50.904;4.694;2024-01-10T05:52:42;-1.30;99.90
8824;DHT22;4448;50.904;4.694;2024-01-10T05:55:09;-1.30;99.90
8824;DHT22;4448;50.904;4.694;2024-01-10T05:57:38;-1.30;99.90
8824;DHT22;4448;50.904;4.694;2024-01-10T06:00:05;-1.30;99.90
8824;DHT22;4448;50.904;4.694;2024-01-10T06:02:38;-1.30;99.90
8824;DHT22;4448;50.904;4.694;2024-01-10T06:05:13;-1.30;99.90
8824;DHT22;4448;50.904;4.694;2024-01-10T06:07:40;-1.40;99.90
8824;DHT22;4448;50.904;4.694;2024-01-10T06:10:08;-1.30;99.90
8824;DHT22;4448;50.904;4.694;2024-01-10T06:12:35;-1.30;99.90
8824;DHT22;4448;50.904;4.694;2024-01-10T06:15:01;-1.30;99.90
8824;DHT22;4448;50.904;4.694;2024-01-10T06:17:27;-1.40;99.90
8824;DHT22;4448;50.904;4.694;2024-01-10T06:19:53;-1.30;99.90
8824;DHT22;4448;50.904;4.694;2024-01-10T06:22:18;-1.30;99.90
8824;DHT22;4448;50.904;4.694;2024-01-10T06:24:50;-1.40;99.90
8824;DHT22;4448;50.904;4.694;2024-01-10T06:27:16;-1.40;99.90
8824;DHT22;4448;50.904;4.694;2024-01-10T06:29:44;-1.40;99.90
8824;DHT22;4448;50.904;4.694;2024-01-10T06:32:10;-1.40;99.90
8824;DHT22;4448;50.904;4.694;2024-01-10T06:34:36;-1.40;99.90
8824;DHT22;4448;50.904;4.694;2024-01-10T06:37:03;-1.40;99.90
8824;DHT22;4448;50.904;4.694;2024-01-10T06:39:28;-1.40;99.90
8824;DHT22;4448;50.904;4.694;2024-01-10T06:41:54;-1.40;99.90
8824;DHT22;4448;50.904;4.694;2024-01-10T06:44:20;-1.40;99.90
8824;DHT22;4448;50.904;4.694;2024-01-10T06:46:46;-1.40;99.90
8824;DHT22;4448;50.904;4.694;2024-01-10T06:49:12;-1.30;99.90
8824;DHT22;4448;50.904;4.694;2024-01-10T06:51:38;-1.30;99.90
8824;DHT22;4448;50.904;4.694;2024-01-10T06:54:04;-1.30;99.90
8824;DHT22;4448;50.904;4.694;2024-01-10T06:56:34;-1.30;99.90
8824;DHT22;4448;50.904;4.694;2024-01-10T06:59:01;-1.30;99.90
8824;DHT22;4448;50.904;4.694;2024-01-10T07:01:27;-1.30;99.90
8824;DHT22;4448;50.904;4.694;2024-01-10T07:03:54;-1.30;99.90
8824;DHT22;4448;50.904;4.694;2024-01-10T07:06:23;-1.30;99.90
8824;DHT22;4448;50.904;4.694;2024-01-10T07:08:50;-1.30;99.90
8824;DHT22;4448;50.904;4.694;2024-01-10T07:11:19;-1.30;99.90
8824;DHT22;4448;50.904;4.694;2024-01-10T07:13:47;-1.30;99.90
8824;DHT22;4448;50.904;4.694;2024-01-10T07:16:13;-1.30;99.90
8824;DHT22;4448;50.904;4.694;2024-01-10T07:18:42;-1.30;99.90
8824;DHT22;4448;50.904;4.694;2024-01-10T07:21:09;-1.30;99.90
8824;DHT22;4448;50.904;4.694;2024-01-10T07:23:36;-1.30;99.90
8824;DHT22;4448;50.904;4.694;2024-01-10T07:26:03;-1.30;99.90
8824;DHT22;4448;50.904;4.694;2024-01-10T07:28:29;-1.40;99.90
8824;DHT22;4448;50.904;4.694;2024-01-10T07:30:57;-1.40;99.90
8824;DHT22;4448;50.904;4.694;2024-01-10T07:33:22;-1.40;99.90
8824;DHT22;4448;50.904;4.694;2024-01-10T07:35:48;-1.30;99.90
8824;DHT22;4448;50.904;4.694;2024-01-10T07:38:14;-1.40;99.90
8824;DHT22;4448;50.904;4.694;2024-01-10T07:40:39;-1.40;99.90
8824;DHT22;4448;50.904;4.694;2024-01-10T07:43:05;-1.30;99.90
8824;DHT22;4448;50.904;4.694;2024-01-10T07:45:31;-1.30;99.90
8824;DHT22;4448;50.904;4.694;2024-01-10T07:47:56;-1.40;99.90
8824;DHT22;4448;50.904;4.694;2024-01-10T07:50:22;-1.30;99.90
8824;DHT22;4448;50.904;4.694;2024-01-10T07:52:52;-1.30;99.90
8824;DHT22;4448;50.904;4.694;2024-01-10T07:55:18;-1.30;99.90
8824;DHT22;4448;50.904;4.694;2024-01-10T07:57:44;-1.30;99.90
8824;DHT22;4448;50.904;4.694;2024-01-10T08:00:10;-1.30;99.90
8824;DHT22;4448;50.904;4.694;2024-01-10T08:02:37;-1.30;99.90
8824;DHT22;4448;50.904;4.694;2024-01-10T08:05:03;-1.30;99.90
8824;DHT22;4448;50.904;4.694;2024-01-10T08:07:36;-1.30;99.90
8824;DHT22;4448;50.904;4.694;2024-01-10T08:10:05;-1.30;99.90
8824;DHT22;4448;50.904;4.694;2024-01-10T08:12:31;-1.30;99.90
8824;DHT22;4448;50.904;4.694;2024-01-10T08:14:57;-1.20;99.90
8824;DHT22;4448;50.904;4.694;2024-01-10T08:17:23;-1.20;99.90
8824;DHT22;4448;50.904;4.694;2024-01-10T08:19:49;-1.30;99.90
8824;DHT22;4448;50.904;4.694;2024-01-10T08:22:14;-1.30;99.90
8824;DHT22;4448;50.904;4.694;2024-01-10T08:24:41;-1.30;99.90
8824;DHT22;4448;50.904;4.694;2024-01-10T08:27:06;-1.30;99.90
8824;DHT22;4448;50.904;4.694;2024-01-10T08:29:33;-1.20;99.90
8824;DHT22;4448;50.904;4.694;2024-01-10T08:31:59;-1.20;99.90
8824;DHT22;4448;50.904;4.694;2024-01-10T08:34:25;-1.20;99.90
8824;DHT22;4448;50.904;4.694;2024-01-10T08:36:51;-1.20;99.90
8824;DHT22;4448;50.904;4.694;2024-01-10T08:39:17;-1.10;99.90
8824;DHT22;4448;50.904;4.694;2024-01-10T08:41:43;-1.20;99.90
8824;DHT22;4448;50.904;4.694;2024-01-10T08:44:10;-1.10;99.90
8824;DHT22;4448;50.904;4.694;2024-01-10T08:46:36;-1.10;99.90
8824;DHT22;4448;50.904;4.694;2024-01-10T08:49:02;-1.00;99.90
8824;DHT22;4448;50.904;4.694;2024-01-10T08:51:28;-1.00;99.90
8824;DHT22;4448;50.904;4.694;2024-01-10T08:53:54;-1.00;99.90
8824;DHT22;4448;50.904;4.694;2024-01-10T08:56:19;-0.90;99.90
8824;DHT22;4448;50.904;4.694;2024-01-10T08:58:45;-0.90;99.90
8824;DHT22;4448;50.904;4.694;2024-01-10T09:01:11;-0.80;99.90
8824;DHT22;4448;50.904;4.694;2024-01-10T09:03:37;-0.80;99.90
8824;DHT22;4448;50.904;4.694;2024-01-10T09:06:05;-0.80;99.90
8824;DHT22;4448;50.904;4.694;2024-01-10T09:08:36;-0.70;99.90
8824;DHT22;4448;50.904;4.694;2024-01-10T09:11:02;-0.70;99.90
8824;DHT22;4448;50.904;4.694;2024-01-10T09:13:29;-0.60;99.90
8824;DHT22;4448;50.904;4.694;2024-01-10T09:15:55;-0.60;99.90
8824;DHT22;4448;50.904;4.694;2024-01-10T09:18:21;-0.50;99.90
8824;DHT22;4448;50.904;4.694;2024-01-10T09:20:47;-0.50;99.90
8824;DHT22;4448;50.904;4.694;2024-01-10T09:23:13;-0.40;99.90
8824;DHT22;4448;50.904;4.694;2024-01-10T09:25:39;-0.40;99.90
8824;DHT22;4448;50.904;4.694;2024-01-10T09:28:05;-0.30;99.90
8824;DHT22;4448;50.904;4.694;2024-01-10T09:30:31;-0.30;99.90
8824;DHT22;4448;50.904;4.694;2024-01-10T09:32:56;-0.20;99.90
8824;DHT22;4448;50.904;4.694;2024-01-10T09:35:23;-0.20;99.90
8824;DHT22;4448;50.904;4.694;2024-01-10T09:37:48;-0.10;99.90
8824;DHT22;4448;50.904;4.694;2024-01-10T09:40:16;0.00;99.90
8824;DHT22;4448;50.904;4.694;2024-01-10T09:42:44;0.00;99.90
8824;DHT22;4448;50.904;4.694;2024-01-10T09:45:10;0.10;99.90
8824;DHT22;4448;50.904;4.694;2024-01-10T09:47:39;0.20;99.90
8824;DHT22;4448;50.904;4.694;2024-01-10T09:50:08;0.30;99.90
8824;DHT22;4448;50.904;4.694;2024-01-10T09:53:07;0.30;99.90
8824;DHT22;4448;50.904;4.694;2024-01-10T09:55:35;0.40;99.90
8824;DHT22;4448;50.904;4.694;2024-01-10T09:58:05;0.50;99.90
8824;DHT22;4448;50.904;4.694;2024-01-10T10:00:33;0.60;99.90
8824;DHT22;4448;50.904;4.694;2024-01-10T10:02:59;0.70;99.90
8824;DHT22;4448;50.904;4.694;2024-01-10T10:05:26;0.70;99.90
8824;DHT22;4448;50.904;4.694;2024-01-10T10:07:55;0.80;99.90
8824;DHT22;4448;50.904;4.694;2024-01-10T10:10:23;0.90;99.90
8824;DHT22;4448;50.904;4.694;2024-01-10T10:12:50;1.00;99.90
8824;DHT22;4448;50.904;4.694;2024-01-10T10:15:23;1.10;99.90
8824;DHT22;4448;50.904;4.694;2024-01-10T10:17:50;1.20;99.90
8824;DHT22;4448;50.904;4.694;2024-01-10T10:20:26;1.30;99.90
8824;DHT22;4448;50.904;4.694;2024-01-10T10:23:06;1.40;99.90
8824;DHT22;4448;50.904;4.694;2024-01-10T10:25:34;1.40;99.90
8824;DHT22;4448;50.904;4.694;2024-01-10T10:28:01;1.50;99.90
8824;DHT22;4448;50.904;4.694;2024-01-10T10:30:28;1.50;99.90
8824;DHT22;4448;50.904;4.694;2024-01-10T10:32:55;1.60;99.90
8824;DHT22;4448;50.904;4.694;2024-01-10T10:35:20;1.60;99.90
8824;DHT22;4448;50.904;4.694;2024-01-10T10:37:52;1.70;99.90
8824;DHT22;4448;50.904;4.694;2024-01-10T10:40:19;1.70;99.90
8824;DHT22;4448;50.904;4.694;2024-01-10T10:43:05;1.70;99.90
8824;DHT22;4448;50.904;4.694;2024-01-10T10:45:35;1.70;99.90
8824;DHT22;4448;50.904;4.694;2024-01-10T10:48:12;1.70;99.90
8824;DHT22;4448;50.904;4.694;2024-01-10T10:50:40;1.70;99.90
8824;DHT22;4448;50.904;4.694;2024-01-10T10:53:06;1.70;99.90
8824;DHT22;4448;50.904;4.694;2024-01-10T10:55:34;1.80;99.90
8824;DHT22;4448;50.904;4.694;2024-01-10T10:58:02;1.80;99.90
8824;DHT22;4448;50.904;4.694;2024-01-10T11:00:31;1.80;99.90
8824;DHT22;4448;50.904;4.694;2024-01-10T11:02:57;1.80;99.90
8824;DHT22;4448;50.904;4.694;2024-01-10T11:05:23;1.80;99.90
8824;DHT22;4448;50.904;4.694;2024-01-10T11:07:49;1.70;99.90
8824;DHT22;4448;50.904;4.694;2024-01-10T11:10:34;1.70;99.90
8824;DHT22;4448;50.904;4.694;2024-01-10T11:24:17;1.10;99.90
8824;DHT22;4448;50.904;4.694;2024-01-10T11:26:45;1.00;99.90
8824;DHT22;4448;50.904;4.694;2024-01-10T11:29:11;0.90;99.90
8824;DHT22;4448;50.904;4.694;2024-01-10T11:31:38;0.80;99.90
8824;DHT22;4448;50.904;4.694;2024-01-10T11:34:04;0.80;99.90
8824;DHT22;4448;50.904;4.694;2024-01-10T11:36:30;0.90;99.90
8824;DHT22;4448;50.904;4.694;2024-01-10T11:39:04;0.90;99.90
8824;DHT22;4448;50.904;4.694;2024-01-10T11:41:36;0.90;99.90
8824;DHT22;4448;50.904;4.694;2024-01-10T11:46:49;1.00;99.90
8824;DHT22;4448;50.904;4.694;2024-01-10T11:49:17;1.00;99.90
8824;DHT22;4448;50.904;4.694;2024-01-10T11:51:48;1.10;99.90
8824;DHT22;4448;50.904;4.694;2024-01-10T11:54:37;1.10;99.90
8824;DHT22;4448;50.904;4.694;2024-01-10T11:57:08;1.10;99.90
8824;DHT22;4448;50.904;4.694;2024-01-10T11:59:34;1.10;99.90
8824;DHT22;4448;50.904;4.694;2024-01-10T12:02:00;1.10;99.90
8824;DHT22;4448;50.904;4.694;2024-01-10T12:04:26;1.10;99.90
8824;DHT22;4448;50.904;4.694;2024-01-10T12:06:56;1.00;99.90
8824;DHT22;4448;50.904;4.694;2024-01-10T12:09:22;1.00;99.90
8824;DHT22;4448;50.904;4.694;2024-01-10T12:11:50;1.00;99.90
8824;DHT22;4448;50.904;4.694;2024-01-10T12:14:16;1.00;99.90
8824;DHT22;4448;50.904;4.694;2024-01-10T12:16:43;1.00;99.90
8824;DHT22;4448;50.904;4.694;2024-01-10T12:19:08;1.00;99.90
8824;DHT22;4448;50.904;4.694;2024-01-10T12:21:34;1.00;99.90
8824;DHT22;4448;50.904;4.694;2024-01-10T12:24:00;1.00;99.90
8824;DHT22;4448;50.904;4.694;2024-01-10T12:26:25;1.00;99.90
8824;DHT22;4448;50.904;4.694;2024-01-10T12:28:58;1.00;99.90
8824;DHT22;4448;50.904;4.694;2024-01-10T12:31:27;1.00;99.90
8824;DHT22;4448;50.904;4.694;2024-01-10T12:33:55;1.10;99.90
8824;DHT22;4448;50.904;4.694;2024-01-10T12:36:21;1.10;99.90
8824;DHT22;4448;50.904;4.694;2024-01-10T12:38:47;1.10;99.90
8824;DHT22;4448;50.904;4.694;2024-01-10T12:41:15;1.10;99.90
8824;DHT22;4448;50.904;4.694;2024-01-10T12:43:41;1.10;99.90
8824;DHT22;4448;50.904;4.694;2024-01-10T12:46:11;1.10;99.90
8824;DHT22;4448;50.904;4.694;2024-01-10T12:48:38;1.10;99.90
8824;DHT22;4448;50.904;4.694;2024-01-10T12:51:11;1.10;99.90
8824;DHT22;4448;50.904;4.694;2024-01-10T12:53:42;1.10;99.90
8824;DHT22;4448;50.904;4.694;2024-01-10T12:56:09;1.10;99.90
8824;DHT22;4448;50.904;4.694;2024-01-10T12:58:40;1.20;99.90
8824;DHT22;4448;50.904;4.694;2024-01-10T13:01:10;1.20;99.90
8824;DHT22;4448;50.904;4.694;2024-01-10T13:03:38;1.20;99.90
8824;DHT22;4448;50.904;4.694;2024-01-10T13:06:04;1.20;99.90
8824;DHT22;4448;50.904;4.694;2024-01-10T13:08:30;1.20;99.90
8824;DHT22;4448;50.904;4.694;2024-01-10T13:10:57;1.30;99.90
8824;DHT22;4448;50.904;4.694;2024-01-10T13:13:23;1.30;99.90
8824;DHT22;4448;50.904;4.694;2024-01-10T13:15:49;1.30;99.90
8824;DHT22;4448;50.904;4.694;2024-01-10T13:18:15;1.30;99.90
8824;DHT22;4448;50.904;4.694;2024-01-10T13:20:42;1.30;99.90
8824;DHT22;4448;50.904;4.694;2024-01-10T13:23:08;1.30;99.90
8824;DHT22;4448;50.904;4.694;2024-01-10T13:25:35;1.30;99.90
8824;DHT22;4448;50.904;4.694;2024-01-10T13:28:05;1.30;99.90
8824;DHT22;4448;50.904;4.694;2024-01-10T13:30:31;1.30;99.90
8824;DHT22;4448;50.904;4.694;2024-01-10T13:32:57;1.40;99.90
8824;DHT22;4448;50.904;4.694;2024-01-10T13:35:23;1.40;99.90
8824;DHT22;4448;50.904;4.694;2024-01-10T13:37:49;1.40;99.90
8824;DHT22;4448;50.904;4.694;2024-01-10T13:40:15;1.40;99.90
8824;DHT22;4448;50.904;4.694;2024-01-10T13:42:42;1.40;99.90
8824;DHT22;4448;50.904;4.694;2024-01-10T13:45:09;1.40;99.90
8824;DHT22;4448;50.904;4.694;2024-01-10T13:47:39;1.40;99.90
8824;DHT22;4448;50.904;4.694;2024-01-10T13:50:06;1.50;99.90
8824;DHT22;4448;50.904;4.694;2024-01-10T13:52:32;1.50;99.90
8824;DHT22;4448;50.904;4.694;2024-01-10T13:54:59;1.50;99.90
8824;DHT22;4448;50.904;4.694;2024-01-10T13:57:25;1.50;99.90
8824;DHT22;4448;50.904;4.694;2024-01-10T13:59:50;1.50;99.90
8824;DHT22;4448;50.904;4.694;2024-01-10T14:02:16;1.60;99.90
8824;DHT22;4448;50.904;4.694;2024-01-10T14:04:45;1.60;99.90
8824;DHT22;4448;50.904;4.694;2024-01-10T14:07:11;1.60;99.90
8824;DHT22;4448;50.904;4.694;2024-01-10T14:09:36;1.60;99.90
8824;DHT22;4448;50.904;4.694;2024-01-10T14:12:02;1.60;99.90
8824;DHT22;4448;50.904;4.694;2024-01-10T14:14:28;1.60;99.90
8824;DHT22;4448;50.904;4.694;2024-01-10T14:16:54;1.60;99.90
8824;DHT22;4448;50.904;4.694;2024-01-10T14:19:19;1.60;99.90
8824;DHT22;4448;50.904;4.694;2024-01-10T14:21:46;1.60;99.90
8824;DHT22;4448;50.904;4.694;2024-01-10T14:24:12;1.60;99.90
8824;DHT22;4448;50.904;4.694;2024-01-10T14:26:38;1.60;99.90
8824;DHT22;4448;50.904;4.694;2024-01-10T14:29:04;1.60;99.90
8824;DHT22;4448;50.904;4.694;2024-01-10T14:31:30;1.60;99.90
8824;DHT22;4448;50.904;4.694;2024-01-10T14:33:55;1.60;99.90
8824;DHT22;4448;50.904;4.694;2024-01-10T14:36:22;1.60;99.90
8824;DHT22;4448;50.904;4.694;2024-01-10T14:38:48;1.60;99.90
8824;DHT22;4448;50.904;4.694;2024-01-10T14:41:13;1.70;99.90
8824;DHT22;4448;50.904;4.694;2024-01-10T14:43:39;1.70;99.90
8824;DHT22;4448;50.904;4.694;2024-01-10T14:46:05;1.70;99.90
8824;DHT22;4448;50.904;4.694;2024-01-10T14:48:31;1.70;99.90
8824;DHT22;4448;50.904;4.694;2024-01-10T14:50:59;1.70;99.90
8824;DHT22;4448;50.904;4.694;2024-01-10T14:53:26;1.70;99.90
8824;DHT22;4448;50.904;4.694;2024-01-10T14:55:52;1.80;99.90
8824;DHT22;4448;50.904;4.694;2024-01-10T14:58:18;1.80;99.90
8824;DHT22;4448;50.904;4.694;2024-01-10T15:00:44;1.80;99.90
8824;DHT22;4448;50.904;4.694;2024-01-10T15:03:10;1.80;99.90
8824;DHT22;4448;50.904;4.694;2024-01-10T15:05:36;1.80;99.90
8824;DHT22;4448;50.904;4.694;2024-01-10T15:08:02;1.80;99.90
8824;DHT22;4448;50.904;4.694;2024-01-10T15:10:31;1.80;99.90
8824;DHT22;4448;50.904;4.694;2024-01-10T15:12:56;1.80;99.90
8824;DHT22;4448;50.904;4.694;2024-01-10T15:15:22;1.80;99.90
8824;DHT22;4448;50.904;4.694;2024-01-10T15:17:48;1.80;99.90
8824;DHT22;4448;50.904;4.694;2024-01-10T15:20:13;1.80;99.90
8824;DHT22;4448;50.904;4.694;2024-01-10T15:22:39;1.80;99.90
8824;DHT22;4448;50.904;4.694;2024-01-10T15:25:07;1.70;99.90
8824;DHT22;4448;50.904;4.694;2024-01-10T15:27:33;1.70;99.90
8824;DHT22;4448;50.904;4.694;2024-01-10T15:29:59;1.70;99.90
8824;DHT22;4448;50.904;4.694;2024-01-10T15:32:24;1.70;99.90
8824;DHT22;4448;50.904;4.694;2024-01-10T15:34:51;1.60;99.90
8824;DHT22;4448;50.904;4.694;2024-01-10T15:37:17;1.60;99.90
8824;DHT22;4448;50.904;4.694;2024-01-10T15:39:43;1.50;99.90
8824;DHT22;4448;50.904;4.694;2024-01-10T15:42:09;1.50;99.90
8824;DHT22;4448;50.904;4.694;2024-01-10T15:44:39;1.50;99.90
8824;DHT22;4448;50.904;4.694;2024-01-10T15:47:07;1.50;99.90
8824;DHT22;4448;50.904;4.694;2024-01-10T15:49:33;1.50;99.90
8824;DHT22;4448;50.904;4.694;2024-01-10T15:51:59;1.50;99.90
8824;DHT22;4448;50.904;4.694;2024-01-10T15:54:24;1.40;99.90
8824;DHT22;4448;50.904;4.694;2024-01-10T15:56:50;1.40;99.90
8824;DHT22;4448;50.904;4.694;2024-01-10T15:59:17;1.40;99.90
8824;DHT22;4448;50.904;4.694;2024-01-10T16:01:43;1.40;99.90
8824;DHT22;4448;50.904;4.694;2024-01-10T16:04:09;1.40;99.90
8824;DHT22;4448;50.904;4.694;2024-01-10T16:06:35;1.40;99.90
8824;DHT22;4448;50.904;4.694;2024-01-10T16:09:03;1.40;99.90
8824;DHT22;4448;50.904;4.694;2024-01-10T16:11:30;1.40;99.90
8824;DHT22;4448;50.904;4.694;2024-01-10T16:13:56;1.40;99.90
8824;DHT22;4448;50.904;4.694;2024-01-10T16:16:23;1.40;99.90
8824;DHT22;4448;50.904;4.694;2024-01-10T16:18:51;1.40;99.90